sensor_id;sensor_type;location;lat;lon;timestamp;pressure;altitude;pressure_sealevel;temperature;humidity
71764;BME280;59602;52.142;5.408;2022-12-07T00:01:20;101982.63;;;4.47;93.31
71764;BME280;59602;52.142;5.408;2022-12-07T00:03:49;101981.78;;;4.46;92.57
71764;BME280;59602;52.142;5.408;2022-12-07T00:06:17;101978.81;;;4.48;92.60
71764;BME280;59602;52.142;5.408;2022-12-07T00:08:44;101989.09;;;4.46;93.06
71764;BME280;59602;52.142;5.408;2022-12-07T00:11:14;101980.22;;;4.45;92.97
71764;BME280;59602;52.142;5.408;2022-12-07T00:13:42;101985.91;;;4.44;92.71
71764;BME280;59602;52.142;5.408;2022-12-07T00:16:13;101986.53;;;4.41;92.90
71764;BME280;59602;52.142;5.408;2022-12-07T00:18:41;101977.97;;;4.39;92.50
71764;BME280;59602;52.142;5.408;2022-12-07T00:21:14;101980.97;;;4.37;92.45
71764;BME280;59602;52.142;5.408;2022-12-07T00:23:42;101977.19;;;4.38;92.61
71764;BME280;59602;52.142;5.408;2022-12-07T00:26:19;101974.78;;;4.36;92.79
71764;BME280;59602;52.142;5.408;2022-12-07T00:28:47;101971.59;;;4.34;93.11
71764;BME280;59602;52.142;5.408;2022-12-07T00:31:16;101971.59;;;4.34;92.71
71764;BME280;59602;52.142;5.408;2022-12-07T00:33:44;101963.53;;;4.34;93.03
71764;BME280;59602;52.142;5.408;2022-12-07T00:36:15;101962.25;;;4.32;93.00
71764;BME280;59602;52.142;5.408;2022-12-07T00:38:48;101966.06;;;4.31;93.20
71764;BME280;59602;52.142;5.408;2022-12-07T00:41:17;101959.56;;;4.32;93.52
71764;BME280;59602;52.142;5.408;2022-12-07T00:43:45;101955.75;;;4.33;93.52
71764;BME280;59602;52.142;5.408;2022-12-07T00:46:13;101951.47;;;4.32;93.32
71764;BME280;59602;52.142;5.408;2022-12-07T00:48:40;101949.56;;;4.32;93.58
71764;BME280;59602;52.142;5.408;2022-12-07T00:51:09;101950.22;;;4.29;93.28
71764;BME280;59602;52.142;5.408;2022-12-07T00:53:36;101956.69;;;4.28;93.33
71764;BME280;59602;52.142;5.408;2022-12-07T00:56:11;101955.88;;;4.28;93.55
71764;BME280;59602;52.142;5.408;2022-12-07T00:58:38;101955.09;;;4.27;93.04
71764;BME280;59602;52.142;5.408;2022-12-07T01:01:06;101952.22;;;4.24;92.99
71764;BME280;59602;52.142;5.408;2022-12-07T01:03:34;101956.53;;;4.25;92.75
71764;BME280;59602;52.142;5.408;2022-12-07T01:06:01;101954.91;;;4.24;92.81
71764;BME280;59602;52.142;5.408;2022-12-07T01:08:28;101944.47;;;4.22;92.75
71764;BME280;59602;52.142;5.408;2022-12-07T01:11:01;101942.88;;;4.21;92.31
71764;BME280;59602;52.142;5.408;2022-12-07T01:13:27;101948.75;;;4.23;92.47
71764;BME280;59602;52.142;5.408;2022-12-07T01:15:58;101946.34;;;4.22;92.92
71764;BME280;59602;52.142;5.408;2022-12-07T01:18:27;101949.53;;;4.24;92.40
71764;BME280;59602;52.142;5.408;2022-12-07T01:21:00;101950.66;;;4.23;92.73
71764;BME280;59602;52.142;5.408;2022-12-07T01:23:27;101951.72;;;4.22;92.76
71764;BME280;59602;52.142;5.408;2022-12-07T01:26:02;101950.47;;;4.19;92.67
71764;BME280;59602;52.142;5.408;2022-12-07T01:28:29;101952.34;;;4.19;92.39
71764;BME280;59602;52.142;5.408;2022-12-07T01:31:03;101954.25;;;4.18;92.06
71764;BME280;59602;52.142;5.408;2022-12-07T01:33:33;101954.84;;;4.15;92.85
71764;BME280;59602;52.142;5.408;2022-12-07T01:36:02;101959.75;;;4.13;91.99
71764;BME280;59602;52.142;5.408;2022-12-07T01:38:30;101948.19;;;4.12;91.70
71764;BME280;59602;52.142;5.408;2022-12-07T01:40:58;101955.00;;;4.10;91.68
71764;BME280;59602;52.142;5.408;2022-12-07T01:43:27;101955.28;;;4.08;92.03
71764;BME280;59602;52.142;5.408;2022-12-07T01:45:54;101962.09;;;4.06;91.85
71764;BME280;59602;52.142;5.408;2022-12-07T01:48:25;101959.72;;;4.04;91.56
71764;BME280;59602;52.142;5.408;2022-12-07T01:50:56;101957.81;;;4.05;91.39
71764;BME280;59602;52.142;5.408;2022-12-07T01:53:24;101963.00;;;4.01;91.68
71764;BME280;59602;52.142;5.408;2022-12-07T01:55:54;101959.84;;;3.99;91.47
71764;BME280;59602;52.142;5.408;2022-12-07T01:58:23;101952.09;;;3.98;91.57
71764;BME280;59602;52.142;5.408;2022-12-07T02:00:50;101955.84;;;3.97;90.92
71764;BME280;59602;52.142;5.408;2022-12-07T02:03:22;101959.66;;;3.95;91.58
71764;BME280;59602;52.142;5.408;2022-12-07T02:05:51;101960.75;;;3.94;91.84
71764;BME280;59602;52.142;5.408;2022-12-07T02:08:18;101957.28;;;3.94;91.43
71764;BME280;59602;52.142;5.408;2022-12-07T02:10:45;101957.28;;;3.94;91.72
71764;BME280;59602;52.142;5.408;2022-12-07T02:13:16;101954.88;;;3.92;91.85
71764;BME280;59602;52.142;5.408;2022-12-07T02:18:53;101949.81;;;3.91;91.41
71764;BME280;59602;52.142;5.408;2022-12-07T02:21:45;101950.31;;;3.93;91.14
71764;BME280;59602;52.142;5.408;2022-12-07T02:24:25;101949.50;;;3.92;91.79
71764;BME280;59602;52.142;5.408;2022-12-07T02:27:14;101943.81;;;3.94;91.78
71764;BME280;59602;52.142;5.408;2022-12-07T02:29:58;101943.53;;;3.95;91.79
71764;BME280;59602;52.142;5.408;2022-12-07T02:35:07;101944.31;;;3.96;91.65
71764;BME280;59602;52.142;5.408;2022-12-07T02:37:43;101941.00;;;3.99;91.60
71764;BME280;59602;52.142;5.408;2022-12-07T02:40:24;101941.00;;;3.99;92.04
71764;BME280;59602;52.142;5.408;2022-12-07T02:43:00;101928.34;;;4.00;92.04
71764;BME280;59602;52.142;5.408;2022-12-07T02:45:29;101928.34;;;4.00;91.86
71764;BME280;59602;52.142;5.408;2022-12-07T02:47:59;101934.03;;;3.98;92.41
71764;BME280;59602;52.142;5.408;2022-12-07T02:50:26;101939.13;;;4.00;92.27
71764;BME280;59602;52.142;5.408;2022-12-07T02:52:54;101939.13;;;4.00;92.48
71764;BME280;59602;52.142;5.408;2022-12-07T02:55:28;101941.69;;;4.05;92.26
71764;BME280;59602;52.142;5.408;2022-12-07T02:58:25;101934.88;;;4.07;92.58
71764;BME280;59602;52.142;5.408;2022-12-07T03:01:09;101949.91;;;4.08;92.53
71764;BME280;59602;52.142;5.408;2022-12-07T03:03:44;101940.25;;;4.07;92.54
71764;BME280;59602;52.142;5.408;2022-12-07T03:06:24;101946.72;;;4.06;92.75
71764;BME280;59602;52.142;5.408;2022-12-07T03:09:17;101946.72;;;4.06;92.15
71764;BME280;59602;52.142;5.408;2022-12-07T03:11:50;101939.16;;;4.08;92.52
71764;BME280;59602;52.142;5.408;2022-12-07T03:14:21;101935.84;;;4.11;92.21
71764;BME280;59602;52.142;5.408;2022-12-07T03:17:04;101929.06;;;4.14;92.43
71764;BME280;59602;52.142;5.408;2022-12-07T03:19:33;101932.53;;;4.14;92.47
71764;BME280;59602;52.142;5.408;2022-12-07T03:22:05;101934.44;;;4.14;92.49
71764;BME280;59602;52.142;5.408;2022-12-07T03:24:38;101930.97;;;4.13;92.72
71764;BME280;59602;52.142;5.408;2022-12-07T03:27:11;101925.25;;;4.15;92.55
71764;BME280;59602;52.142;5.408;2022-12-07T03:29:45;101930.34;;;4.16;92.49
71764;BME280;59602;52.142;5.408;2022-12-07T03:32:19;101930.63;;;4.15;92.14
71764;BME280;59602;52.142;5.408;2022-12-07T03:34:56;101926.38;;;4.14;92.69
71764;BME280;59602;52.142;5.408;2022-12-07T03:37:33;101923.38;;;4.15;92.66
71764;BME280;59602;52.142;5.408;2022-12-07T03:40:10;101922.91;;;4.13;92.10
71764;BME280;59602;52.142;5.408;2022-12-07T03:42:42;101919.38;;;4.13;92.08
71764;BME280;59602;52.142;5.408;2022-12-07T03:45:13;101924.31;;;4.11;92.34
71764;BME280;59602;52.142;5.408;2022-12-07T03:48:04;101926.81;;;4.07;92.41
71764;BME280;59602;52.142;5.408;2022-12-07T03:50:41;101914.75;;;4.05;92.84
71764;BME280;59602;52.142;5.408;2022-12-07T03:53:19;101918.25;;;4.05;92.61
71764;BME280;59602;52.142;5.408;2022-12-07T03:55:48;101923.63;;;4.05;92.56
71764;BME280;59602;52.142;5.408;2022-12-07T03:58:19;101921.72;;;4.06;92.35
71764;BME280;59602;52.142;5.408;2022-12-07T04:00:49;101923.31;;;4.07;92.17
71764;BME280;59602;52.142;5.408;2022-12-07T04:03:16;101923.31;;;4.07;92.56
71764;BME280;59602;52.142;5.408;2022-12-07T04:05:44;101924.41;;;4.06;92.89
71764;BME280;59602;52.142;5.408;2022-12-07T04:08:14;101912.88;;;4.05;92.01
71764;BME280;59602;52.142;5.408;2022-12-07T04:10:42;101910.97;;;4.06;92.28
71764;BME280;59602;52.142;5.408;2022-12-07T04:13:13;101907.66;;;4.09;92.82
71764;BME280;59602;52.142;5.408;2022-12-07T04:15:39;101902.28;;;4.09;92.60
71764;BME280;59602;52.142;5.408;2022-12-07T04:18:08;101906.56;;;4.10;92.67
71764;BME280;59602;52.142;5.408;2022-12-07T04:20:36;101900.38;;;4.09;92.39
71764;BME280;59602;52.142;5.408;2022-12-07T04:23:09;101899.75;;;4.12;93.07
71764;BME280;59602;52.142;5.408;2022-12-07T04:25:37;101906.75;;;4.13;92.64
71764;BME280;59602;52.142;5.408;2022-12-07T04:28:18;101912.13;;;4.13;92.71
71764;BME280;59602;52.142;5.408;2022-12-07T04:30:46;101908.81;;;4.16;92.61
71764;BME280;59602;52.142;5.408;2022-12-07T04:33:15;101912.63;;;4.15;92.56
71764;BME280;59602;52.142;5.408;2022-12-07T04:35:44;101912.44;;;4.12;92.51
71764;BME280;59602;52.142;5.408;2022-12-07T04:38:12;101914.34;;;4.11;92.80
71764;BME280;59602;52.142;5.408;2022-12-07T04:40:44;101911.63;;;4.11;92.54
71764;BME280;59602;52.142;5.408;2022-12-07T04:43:14;101906.25;;;4.11;92.58
71764;BME280;59602;52.142;5.408;2022-12-07T04:45:49;101904.66;;;4.10;92.37
71764;BME280;59602;52.142;5.408;2022-12-07T04:48:23;101909.25;;;4.10;92.71
71764;BME280;59602;52.142;5.408;2022-12-07T04:51:09;101910.38;;;4.09;92.62
71764;BME280;59602;52.142;5.408;2022-12-07T04:53:42;101901.66;;;4.12;92.92
71764;BME280;59602;52.142;5.408;2022-12-07T04:56:09;101906.25;;;4.11;92.75
71764;BME280;59602;52.142;5.408;2022-12-07T04:58:37;101902.44;;;4.12;92.75
71764;BME280;59602;52.142;5.408;2022-12-07T05:01:06;101899.75;;;4.12;92.74
71764;BME280;59602;52.142;5.408;2022-12-07T05:03:33;101897.06;;;4.12;92.33
71764;BME280;59602;52.142;5.408;2022-12-07T05:06:02;101894.69;;;4.11;92.42
71764;BME280;59602;52.142;5.408;2022-12-07T05:08:38;101890.41;;;4.10;92.28
71764;BME280;59602;52.142;5.408;2022-12-07T05:11:08;101888.34;;;4.07;91.51
71764;BME280;59602;52.142;5.408;2022-12-07T05:13:41;101891.34;;;4.05;91.76
71764;BME280;59602;52.142;5.408;2022-12-07T05:16:08;101887.53;;;4.06;91.87
71764;BME280;59602;52.142;5.408;2022-12-07T05:18:44;101887.06;;;4.04;91.84
71764;BME280;59602;52.142;5.408;2022-12-07T05:21:27;101888.00;;;4.00;91.86
71764;BME280;59602;52.142;5.408;2022-12-07T05:23:56;101888.09;;;3.94;91.38
71764;BME280;59602;52.142;5.408;2022-12-07T05:26:24;101887.63;;;3.92;91.31
71764;BME280;59602;52.142;5.408;2022-12-07T05:28:54;101888.72;;;3.91;90.89
71764;BME280;59602;52.142;5.408;2022-12-07T05:31:21;101887.94;;;3.91;91.11
71764;BME280;59602;52.142;5.408;2022-12-07T05:33:56;101885.25;;;3.91;90.86
71764;BME280;59602;52.142;5.408;2022-12-07T05:36:23;101888.53;;;3.88;90.88
71764;BME280;59602;52.142;5.408;2022-12-07T05:38:51;101883.00;;;3.84;90.99
71764;BME280;59602;52.142;5.408;2022-12-07T05:41:18;101899.72;;;3.81;90.81
71764;BME280;59602;52.142;5.408;2022-12-07T05:44:06;101892.44;;;3.82;90.45
71764;BME280;59602;52.142;5.408;2022-12-07T05:46:38;101889.75;;;3.82;90.74
71764;BME280;59602;52.142;5.408;2022-12-07T05:49:11;101898.16;;;3.80;91.03
71764;BME280;59602;52.142;5.408;2022-12-07T05:51:42;101889.59;;;3.78;90.36
71764;BME280;59602;52.142;5.408;2022-12-07T05:54:10;101884.72;;;3.80;90.71
71764;BME280;59602;52.142;5.408;2022-12-07T05:56:40;101892.44;;;3.82;90.74
71764;BME280;59602;52.142;5.408;2022-12-07T05:59:09;101895.13;;;3.82;90.51
71764;BME280;59602;52.142;5.408;2022-12-07T06:02:25;101890.59;;;3.82;90.72
71764;BME280;59602;52.142;5.408;2022-12-07T06:05:39;101904.81;;;3.83;90.82
71764;BME280;59602;52.142;5.408;2022-12-07T06:08:54;101894.06;;;3.83;90.89
71764;BME280;59602;52.142;5.408;2022-12-07T06:11:46;101894.69;;;3.80;90.88
71764;BME280;59602;52.142;5.408;2022-12-07T06:14:32;101890.38;;;3.79;91.30
71764;BME280;59602;52.142;5.408;2022-12-07T06:17:09;101896.56;;;3.79;90.96
71764;BME280;59602;52.142;5.408;2022-12-07T06:20:56;101893.56;;;3.81;91.08
71764;BME280;59602;52.142;5.408;2022-12-07T06:23:24;101898.31;;;3.84;90.87
71764;BME280;59602;52.142;5.408;2022-12-07T06:25:54;101898.16;;;3.80;90.62
71764;BME280;59602;52.142;5.408;2022-12-07T06:28:24;101899.44;;;3.83;90.72
71764;BME280;59602;52.142;5.408;2022-12-07T06:30:59;101903.69;;;3.84;90.79
71764;BME280;59602;52.142;5.408;2022-12-07T06:33:35;101892.16;;;3.83;91.01
71764;BME280;59602;52.142;5.408;2022-12-07T06:36:02;101899.13;;;3.84;91.28
71764;BME280;59602;52.142;5.408;2022-12-07T06:38:28;101898.03;;;3.85;91.17
71764;BME280;59602;52.142;5.408;2022-12-07T06:40:55;101893.75;;;3.84;91.03
71764;BME280;59602;52.142;5.408;2022-12-07T06:43:24;101899.94;;;3.85;90.99
71764;BME280;59602;52.142;5.408;2022-12-07T06:45:50;101897.03;;;3.81;90.95
71764;BME280;59602;52.142;5.408;2022-12-07T06:48:19;101907.63;;;3.78;90.55
71764;BME280;59602;52.142;5.408;2022-12-07T06:50:48;101898.25;;;3.75;90.44
71764;BME280;59602;52.142;5.408;2022-12-07T06:53:20;101903.34;;;3.77;90.99
71764;BME280;59602;52.142;5.408;2022-12-07T06:55:46;101903.34;;;3.77;90.88
71764;BME280;59602;52.142;5.408;2022-12-07T06:58:20;101907.94;;;3.76;91.02
71764;BME280;59602;52.142;5.408;2022-12-07T07:00:48;101898.59;;;3.73;91.45
71764;BME280;59602;52.142;5.408;2022-12-07T07:03:16;101900.66;;;3.77;91.25
71764;BME280;59602;52.142;5.408;2022-12-07T07:05:43;101898.25;;;3.75;90.89
71764;BME280;59602;52.142;5.408;2022-12-07T07:08:11;101906.66;;;3.73;91.00
71764;BME280;59602;52.142;5.408;2022-12-07T07:10:48;101898.88;;;3.72;90.91
71764;BME280;59602;52.142;5.408;2022-12-07T07:13:15;101902.06;;;3.74;91.15
71764;BME280;59602;52.142;5.408;2022-12-07T07:15:41;101896.97;;;3.72;90.78
71764;BME280;59602;52.142;5.408;2022-12-07T07:18:08;101903.97;;;3.73;90.76
71764;BME280;59602;52.142;5.408;2022-12-07T07:20:35;101904.88;;;3.69;91.38
71764;BME280;59602;52.142;5.408;2022-12-07T07:23:02;101905.47;;;3.66;91.02
71764;BME280;59602;52.142;5.408;2022-12-07T07:25:30;101903.41;;;3.63;91.07
71764;BME280;59602;52.142;5.408;2022-12-07T07:27:57;101902.44;;;3.59;90.95
71764;BME280;59602;52.142;5.408;2022-12-07T07:30:24;101895.16;;;3.59;91.14
71764;BME280;59602;52.142;5.408;2022-12-07T07:32:51;101897.84;;;3.59;90.94
71764;BME280;59602;52.142;5.408;2022-12-07T07:35:17;101897.66;;;3.56;90.90
71764;BME280;59602;52.142;5.408;2022-12-07T07:37:44;101902.56;;;3.53;90.87
71764;BME280;59602;52.142;5.408;2022-12-07T07:40:11;101894.44;;;3.45;90.41
71764;BME280;59602;52.142;5.408;2022-12-07T07:42:37;101903.41;;;3.40;90.59
71764;BME280;59602;52.142;5.408;2022-12-07T07:45:04;101902.13;;;3.38;90.67
71764;BME280;59602;52.142;5.408;2022-12-07T07:47:31;101903.53;;;3.35;90.09
71764;BME280;59602;52.142;5.408;2022-12-07T07:49:57;101906.22;;;3.35;90.88
71764;BME280;59602;52.142;5.408;2022-12-07T07:52:24;101906.09;;;3.40;91.01
71764;BME280;59602;52.142;5.408;2022-12-07T07:54:51;101901.50;;;3.41;91.11
71764;BME280;59602;52.142;5.408;2022-12-07T07:57:17;101908.16;;;3.43;91.25
71764;BME280;59602;52.142;5.408;2022-12-07T07:59:44;101904.97;;;3.41;91.00
71764;BME280;59602;52.142;5.408;2022-12-07T08:02:15;101912.75;;;3.43;90.67
71764;BME280;59602;52.142;5.408;2022-12-07T08:04:42;101909.78;;;3.44;90.62
71764;BME280;59602;52.142;5.408;2022-12-07T08:07:09;101915.94;;;3.45;90.92
71764;BME280;59602;52.142;5.408;2022-12-07T08:09:36;101915.31;;;3.48;90.72
71764;BME280;59602;52.142;5.408;2022-12-07T08:12:02;101920.19;;;3.46;90.27
71764;BME280;59602;52.142;5.408;2022-12-07T08:14:29;101917.84;;;3.44;90.77
71764;BME280;59602;52.142;5.408;2022-12-07T08:16:56;101914.94;;;3.41;90.68
71764;BME280;59602;52.142;5.408;2022-12-07T08:19:23;101924.91;;;3.40;90.60
71764;BME280;59602;52.142;5.408;2022-12-07T08:21:50;101917.94;;;3.39;90.66
71764;BME280;59602;52.142;5.408;2022-12-07T08:24:17;101932.34;;;3.43;90.75
71764;BME280;59602;52.142;5.408;2022-12-07T08:26:44;101928.66;;;3.53;91.00
71764;BME280;59602;52.142;5.408;2022-12-07T08:29:10;101933.78;;;3.63;90.94
71764;BME280;59602;52.142;5.408;2022-12-07T08:31:37;101923.88;;;3.72;91.50
71764;BME280;59602;52.142;5.408;2022-12-07T08:34:04;101912.41;;;3.81;91.24
71764;BME280;59602;52.142;5.408;2022-12-07T08:36:30;101906.59;;;3.87;90.94
71764;BME280;59602;52.142;5.408;2022-12-07T08:38:57;101918.63;;;3.90;91.13
71764;BME280;59602;52.142;5.408;2022-12-07T08:50:11;101916.03;;;4.07;90.70
71764;BME280;59602;52.142;5.408;2022-12-07T09:16:42;101912.81;;;4.28;91.01
71764;BME280;59602;52.142;5.408;2022-12-07T09:19:08;101911.59;;;4.34;90.97
71764;BME280;59602;52.142;5.408;2022-12-07T09:21:35;101916.53;;;4.41;90.80
71764;BME280;59602;52.142;5.408;2022-12-07T09:24:02;101924.47;;;4.46;91.18
71764;BME280;59602;52.142;5.408;2022-12-07T09:26:28;101923.72;;;4.54;91.06
71764;BME280;59602;52.142;5.408;2022-12-07T09:28:55;101923.25;;;4.61;90.45
71764;BME280;59602;52.142;5.408;2022-12-07T09:31:22;101933.09;;;4.65;90.32
71764;BME280;59602;52.142;5.408;2022-12-07T09:33:56;101933.25;;;4.69;90.10
71764;BME280;59602;52.142;5.408;2022-12-07T09:36:30;101929.94;;;4.72;90.03
71764;BME280;59602;52.142;5.408;2022-12-07T09:38:59;101928.34;;;4.71;90.14
71764;BME280;59602;52.142;5.408;2022-12-07T09:41:29;101921.56;;;4.73;89.46
71764;BME280;59602;52.142;5.408;2022-12-07T09:44:05;101926.31;;;4.76;89.39
71764;BME280;59602;52.142;5.408;2022-12-07T09:46:36;101916.19;;;4.82;89.36
71764;BME280;59602;52.142;5.408;2022-12-07T09:49:05;101909.69;;;4.83;89.89
71764;BME280;59602;52.142;5.408;2022-12-07T09:51:36;101917.97;;;4.87;89.60
71764;BME280;59602;52.142;5.408;2022-12-07T09:54:03;101920.81;;;4.90;89.29
71764;BME280;59602;52.142;5.408;2022-12-07T09:56:30;101918.91;;;4.91;89.32
71764;BME280;59602;52.142;5.408;2022-12-07T09:59:00;101911.63;;;4.91;88.83
71764;BME280;59602;52.142;5.408;2022-12-07T10:01:31;101917.00;;;4.91;89.30
71764;BME280;59602;52.142;5.408;2022-12-07T10:04:24;101912.41;;;4.92;88.50
71764;BME280;59602;52.142;5.408;2022-12-07T10:06:51;101904.31;;;4.92;88.75
71764;BME280;59602;52.142;5.408;2022-12-07T10:09:20;101908.94;;;4.91;88.86
71764;BME280;59602;52.142;5.408;2022-12-07T10:14:31;101905.41;;;4.91;88.77
71764;BME280;59602;52.142;5.408;2022-12-07T10:23:02;101895.31;;;5.14;88.45
71764;BME280;59602;52.142;5.408;2022-12-07T10:25:32;101893.44;;;5.23;87.96
71764;BME280;59602;52.142;5.408;2022-12-07T10:28:03;101886.59;;;5.26;88.00
71764;BME280;59602;52.142;5.408;2022-12-07T10:31:00;101885.81;;;5.25;87.80
71764;BME280;59602;52.142;5.408;2022-12-07T10:33:30;101885.03;;;5.25;88.18
71764;BME280;59602;52.142;5.408;2022-12-07T10:35:58;101888.34;;;5.22;88.32
71764;BME280;59602;52.142;5.408;2022-12-07T10:38:28;101882.47;;;5.19;87.90
71764;BME280;59602;52.142;5.408;2022-12-07T10:41:06;101885.34;;;5.23;88.08
71764;BME280;59602;52.142;5.408;2022-12-07T10:43:33;101883.44;;;5.32;88.30
71764;BME280;59602;52.142;5.408;2022-12-07T10:54:24;101866.13;;;5.59;87.19
71764;BME280;59602;52.142;5.408;2022-12-07T10:59:42;101865.63;;;5.57;87.04
71764;BME280;59602;52.142;5.408;2022-12-07T11:02:24;101859.94;;;5.59;87.32
71764;BME280;59602;52.142;5.408;2022-12-07T11:04:59;101863.25;;;5.65;87.38
71764;BME280;59602;52.142;5.408;2022-12-07T11:07:38;101861.50;;;5.69;86.98
71764;BME280;59602;52.142;5.408;2022-12-07T11:10:18;101860.69;;;5.77;87.17
71764;BME280;59602;52.142;5.408;2022-12-07T11:13:01;101865.28;;;5.85;87.19
71764;BME280;59602;52.142;5.408;2022-12-07T11:15:46;101853.84;;;5.88;86.51
71764;BME280;59602;52.142;5.408;2022-12-07T11:18:24;101852.72;;;5.89;86.69
71764;BME280;59602;52.142;5.408;2022-12-07T11:21:03;101852.25;;;5.87;86.88
71764;BME280;59602;52.142;5.408;2022-12-07T11:24:01;101847.38;;;5.80;86.17
71764;BME280;59602;52.142;5.408;2022-12-07T11:29:14;101839.44;;;5.67;86.68
71764;BME280;59602;52.142;5.408;2022-12-07T11:32:07;101851.84;;;5.59;86.80
71764;BME280;59602;52.142;5.408;2022-12-07T11:37:34;101836.44;;;5.51;87.34
71764;BME280;59602;52.142;5.408;2022-12-07T11:40:15;101843.75;;;5.50;87.04
71764;BME280;59602;52.142;5.408;2022-12-07T11:42:57;101834.53;;;5.51;87.37
71764;BME280;59602;52.142;5.408;2022-12-07T11:45:28;101827.41;;;5.55;87.25
71764;BME280;59602;52.142;5.408;2022-12-07T11:48:03;101823.59;;;5.56;87.28
71764;BME280;59602;52.142;5.408;2022-12-07T11:50:42;101821.38;;;5.58;87.30
71764;BME280;59602;52.142;5.408;2022-12-07T11:53:15;101817.56;;;5.59;87.38
71764;BME280;59602;52.142;5.408;2022-12-07T12:36:26;101767.09;;;6.07;83.79
71764;BME280;59602;52.142;5.408;2022-12-07T12:39:13;101773.09;;;6.13;83.58
71764;BME280;59602;52.142;5.408;2022-12-07T12:51:43;101766.75;;;6.38;83.03
71764;BME280;59602;52.142;5.408;2022-12-07T12:54:15;101766.75;;;6.38;82.06
71764;BME280;59602;52.142;5.408;2022-12-07T13:07:49;101757.28;;;5.94;82.22
71764;BME280;59602;52.142;5.408;2022-12-07T13:10:31;101759.84;;;5.90;82.79
71764;BME280;59602;52.142;5.408;2022-12-07T13:13:01;101749.25;;;5.85;82.59
71764;BME280;59602;52.142;5.408;2022-12-07T13:15:41;101752.44;;;5.78;83.21
71764;BME280;59602;52.142;5.408;2022-12-07T13:20:56;101742.31;;;5.67;83.76
71764;BME280;59602;52.142;5.408;2022-12-07T13:23:29;101743.28;;;5.62;84.47
71764;BME280;59602;52.142;5.408;2022-12-07T13:28:47;101734.44;;;5.53;84.72
71764;BME280;59602;52.142;5.408;2022-12-07T13:33:47;101724.09;;;5.55;85.23
71764;BME280;59602;52.142;5.408;2022-12-07T13:36:22;101724.09;;;5.55;84.86
71764;BME280;59602;52.142;5.408;2022-12-07T13:38:53;101717.94;;;5.54;84.94
71764;BME280;59602;52.142;5.408;2022-12-07T13:41:23;101718.25;;;5.53;85.21
71764;BME280;59602;52.142;5.408;2022-12-07T13:44:10;101713.16;;;5.51;85.71
71764;BME280;59602;52.142;5.408;2022-12-07T13:49:28;101711.75;;;5.54;85.89
71764;BME280;59602;52.142;5.408;2022-12-07T13:52:13;101715.69;;;5.56;85.93
71764;BME280;59602;52.142;5.408;2022-12-07T13:54:54;101705.38;;;5.58;85.93
71764;BME280;59602;52.142;5.408;2022-12-07T13:57:22;101699.34;;;5.61;86.12
71764;BME280;59602;52.142;5.408;2022-12-07T13:59:50;101705.97;;;5.64;86.00
71764;BME280;59602;52.142;5.408;2022-12-07T14:02:20;101702.19;;;5.65;86.39
71764;BME280;59602;52.142;5.408;2022-12-07T14:04:50;101702.31;;;5.69;86.20
71764;BME280;59602;52.142;5.408;2022-12-07T14:09:58;101696.91;;;5.69;86.50
71764;BME280;59602;52.142;5.408;2022-12-07T14:12:27;101692.00;;;5.71;86.53
71764;BME280;59602;52.142;5.408;2022-12-07T14:14:55;101691.19;;;5.70;86.17
71764;BME280;59602;52.142;5.408;2022-12-07T14:17:24;101687.84;;;5.73;86.29
71764;BME280;59602;52.142;5.408;2022-12-07T14:19:54;101690.22;;;5.75;86.24
71764;BME280;59602;52.142;5.408;2022-12-07T14:22:30;101690.38;;;5.78;86.64
71764;BME280;59602;52.142;5.408;2022-12-07T14:27:35;101676.53;;;5.80;86.17
71764;BME280;59602;52.142;5.408;2022-12-07T14:30:04;101670.34;;;5.79;86.50
71764;BME280;59602;52.142;5.408;2022-12-07T14:32:31;101676.53;;;5.80;86.31
71764;BME280;59602;52.142;5.408;2022-12-07T14:35:09;101683.84;;;5.79;86.59
71764;BME280;59602;52.142;5.408;2022-12-07T14:37:37;101673.84;;;5.80;86.82
71764;BME280;59602;52.142;5.408;2022-12-07T14:40:05;101677.00;;;5.82;86.75
71764;BME280;59602;52.142;5.408;2022-12-07T14:42:33;101675.09;;;5.82;86.69
71764;BME280;59602;52.142;5.408;2022-12-07T14:45:00;101664.28;;;5.82;86.77
71764;BME280;59602;52.142;5.408;2022-12-07T14:47:28;101658.78;;;5.79;86.91
71764;BME280;59602;52.142;5.408;2022-12-07T14:50:18;101662.13;;;5.76;87.35
71764;BME280;59602;52.142;5.408;2022-12-07T14:52:48;101660.06;;;5.73;87.04
71764;BME280;59602;52.142;5.408;2022-12-07T14:55:37;101665.78;;;5.71;86.79
71764;BME280;59602;52.142;5.408;2022-12-07T14:58:03;101666.91;;;5.70;86.53
71764;BME280;59602;52.142;5.408;2022-12-07T15:00:30;101660.06;;;5.73;86.08
71764;BME280;59602;52.142;5.408;2022-12-07T15:02:57;101665.94;;;5.75;86.05
71764;BME280;59602;52.142;5.408;2022-12-07T15:05:23;101665.47;;;5.73;86.04
71764;BME280;59602;52.142;5.408;2022-12-07T15:07:50;101662.47;;;5.74;85.38
71764;BME280;59602;52.142;5.408;2022-12-07T15:10:21;101674.34;;;5.73;85.80
71764;BME280;59602;52.142;5.408;2022-12-07T15:12:50;101672.63;;;5.69;85.63
71764;BME280;59602;52.142;5.408;2022-12-07T15:15:17;101680.44;;;5.61;85.41
71764;BME280;59602;52.142;5.408;2022-12-07T15:17:44;101668.44;;;5.50;85.49
71764;BME280;59602;52.142;5.408;2022-12-07T15:20:12;101672.09;;;5.46;85.88
71764;BME280;59602;52.142;5.408;2022-12-07T15:22:39;101655.00;;;5.41;86.13
71764;BME280;59602;52.142;5.408;2022-12-07T15:25:08;101652.13;;;5.38;86.21
71764;BME280;59602;52.142;5.408;2022-12-07T15:27:35;101659.31;;;5.34;86.81
71764;BME280;59602;52.142;5.408;2022-12-07T15:30:02;101661.06;;;5.30;87.16
71764;BME280;59602;52.142;5.408;2022-12-07T15:32:29;101654.41;;;5.27;87.51
71764;BME280;59602;52.142;5.408;2022-12-07T15:34:56;101650.91;;;5.27;87.71
71764;BME280;59602;52.142;5.408;2022-12-07T15:37:22;101653.94;;;5.25;88.04
71764;BME280;59602;52.142;5.408;2022-12-07T15:39:49;101645.38;;;5.23;88.52
71764;BME280;59602;52.142;5.408;2022-12-07T15:42:15;101640.63;;;5.20;88.66
71764;BME280;59602;52.142;5.408;2022-12-07T15:44:42;101640.63;;;5.20;88.72
71764;BME280;59602;52.142;5.408;2022-12-07T15:47:27;101641.75;;;5.19;89.16